Terminal Aerodrome Forecast
Issued by NWS

Home | Current Version | Previous Version | Text Only | Print | Product List | Glossary On
Versions: 1 2 3 4 5 6 7 8 9 10 11 12 13 14 15
817
FTUS46 KPDT 111135
TAFPSC
TAF
KPSC 111135Z 1112/1212 VRB03KT P6SM OVC140
     FM111500 35004KT P6SM OVC100
     FM120000 33004KT P6SM VCSH SCT070 OVC100
     FM120600 35001KT P6SM SCT050 BKN080 OVC100=

USA.gov is the U.S. government's official web portal to all federal, state and local government web resources and services.